createdAt,value
2019-05-12T00:01:28.557Z,102095.25
2019-05-12T00:03:58.092Z,102102.75
2019-05-12T00:06:28.445Z,102103.48
2019-05-12T00:08:58.001Z,102105.16
2019-05-12T00:11:28.736Z,102112.41
2019-05-12T00:13:58.594Z,102112.69
2019-05-12T00:16:28.391Z,102120.63
2019-05-12T00:18:58.600Z,102124.84
2019-05-12T00:21:28.345Z,102122.30
2019-05-12T00:24:12.327Z,102130.89
2019-05-12T00:26:41.624Z,102128.48
2019-05-12T00:29:10.177Z,102128.06
2019-05-12T00:31:38.659Z,102129.76
2019-05-12T00:34:07.764Z,102124.69
2019-05-12T00:36:37.948Z,102130.66
2019-05-12T00:39:08.668Z,102138.77
2019-05-12T00:41:38.928Z,102136.34
2019-05-12T00:44:08.814Z,102141.47
2019-05-12T00:46:38.542Z,102136.12
2019-05-12T00:49:07.964Z,102145.78
2019-05-12T00:51:38.353Z,102152.04
2019-05-12T00:54:09.154Z,102159.02
2019-05-12T00:56:39.240Z,102162.97
2019-05-12T00:59:08.385Z,102167.17
2019-05-12T01:01:38.074Z,102164.42
2019-05-12T01:04:08.887Z,102169.13
2019-05-12T01:06:38.751Z,102176.87
2019-05-12T01:09:08.733Z,102184.82
2019-05-12T01:11:37.919Z,102181.85
2019-05-12T01:14:08.489Z,102183.41
2019-05-12T01:16:38.502Z,102190.19
2019-05-12T01:19:08.038Z,102186.52
2019-05-12T01:21:37.698Z,102187.38
2019-05-12T01:24:08.825Z,102190.07
2019-05-12T01:26:38.747Z,102198.17
2019-05-12T01:29:08.396Z,102197.16
2019-05-12T01:31:42.712Z,102197.16
2019-05-12T01:34:11.226Z,102209.73
2019-05-12T01:36:39.714Z,102213.99
2019-05-12T01:39:08.547Z,102212.64
2019-05-12T01:41:38.969Z,102227.20
2019-05-12T01:44:08.837Z,102229.32
2019-05-12T01:46:38.289Z,102228.44
2019-05-12T01:49:08.185Z,102231.41
2019-05-12T01:51:38.488Z,102234.72
2019-05-12T01:54:13.906Z,102241.80
2019-05-12T01:56:38.256Z,102249.11
2019-05-12T01:59:08.138Z,102216.44
2019-05-12T02:01:38.910Z,102255.61
2019-05-12T02:04:07.760Z,102257.66
2019-05-12T02:06:38.607Z,102257.42
2019-05-12T02:09:09.457Z,102254.02
2019-05-12T02:11:38.173Z,102260.73
2019-05-12T02:14:09.251Z,102267.03
2019-05-12T02:16:38.707Z,102264.30
2019-05-12T02:19:09.087Z,102273.59
2019-05-12T02:21:38.210Z,102271.64
2019-05-12T02:24:07.854Z,102279.20
2019-05-12T02:26:38.220Z,102281.23
2019-05-12T02:29:07.907Z,102283.10
2019-05-12T02:31:39.847Z,102283.48
2019-05-12T02:34:06.857Z,102291.12
2019-05-12T02:36:35.341Z,102289.05
2019-05-12T02:39:05.450Z,102285.12
2019-05-12T02:41:34.668Z,102286.77
2019-05-12T02:44:05.321Z,102289.88
2019-05-12T02:46:34.786Z,102301.47
2019-05-12T02:49:04.808Z,102298.08
2019-05-12T02:51:35.216Z,102303.53
2019-05-12T02:54:05.516Z,102304.73
2019-05-12T02:56:35.490Z,102304.48
2019-05-12T02:59:05.394Z,102306.09
2019-05-12T03:01:34.796Z,102310.17
2019-05-12T03:04:05.650Z,102313.28
2019-05-12T03:06:36.089Z,102310.98
2019-05-12T03:09:07.093Z,102315.11
2019-05-12T03:11:35.801Z,102316.72
2019-05-12T03:14:04.476Z,102318.19
2019-05-12T03:16:34.888Z,102316.95
2019-05-12T03:19:05.004Z,102325.41
2019-05-12T03:21:35.292Z,102326.02
2019-05-12T03:24:06.122Z,102329.19
2019-05-12T03:26:34.815Z,102327.06
2019-05-12T03:29:05.810Z,102333.32
2019-05-12T03:31:38.684Z,102332.12
2019-05-12T03:34:09.504Z,102336.45
2019-05-12T03:36:41.153Z,102330.09
2019-05-12T03:39:07.271Z,102338.13
2019-05-12T03:41:35.758Z,102341.62
2019-05-12T03:44:05.156Z,102350.34
2019-05-12T03:46:35.203Z,102347.61
2019-05-12T03:49:05.268Z,102352.52
2019-05-12T03:51:35.015Z,102350.08
2019-05-12T03:54:05.078Z,102354.98
2019-05-12T03:56:34.655Z,102357.68
2019-05-12T03:59:04.728Z,102368.11
2019-05-12T04:01:36.242Z,102364.22
2019-05-12T04:04:05.293Z,102364.91
2019-05-12T04:06:34.728Z,102371.04
2019-05-12T04:09:06.284Z,102370.55
2019-05-12T04:11:35.793Z,102373.14
2019-05-12T04:14:05.615Z,102377.27
2019-05-12T04:16:36.291Z,102379.53
2019-05-12T04:19:05.535Z,102382.59
2019-05-12T04:21:35.291Z,102395.83
2019-05-12T04:24:05.619Z,102397.72
2019-05-12T04:26:36.501Z,102403.83
2019-05-12T04:29:05.264Z,102404.97
2019-05-12T04:31:34.862Z,102413.77
2019-05-12T04:34:05.149Z,102417.69
2019-05-12T04:36:35.514Z,102415.70
2019-05-12T04:39:06.275Z,102424.42
2019-05-12T04:41:35.508Z,102424.88
2019-05-12T04:44:05.794Z,102432.26
2019-05-12T04:46:34.816Z,102431.80
2019-05-12T04:49:05.254Z,102434.58
2019-05-12T04:51:34.965Z,102435.64
2019-05-12T04:54:05.796Z,102443.97
2019-05-12T04:56:35.799Z,102445.31
2019-05-12T04:59:05.193Z,102448.36
2019-05-12T05:01:34.880Z,102456.94
2019-05-12T05:04:05.320Z,102454.47
2019-05-12T05:06:34.361Z,102461.33
2019-05-12T05:09:05.099Z,102463.48
2019-05-12T05:11:34.540Z,102474.09
2019-05-12T05:14:04.176Z,102471.16
2019-05-12T05:16:34.589Z,102468.70
2019-05-12T05:19:03.871Z,102465.13
2019-05-12T05:21:34.365Z,102469.41
2019-05-12T05:24:03.837Z,102472.80
2019-05-12T05:26:36.613Z,102474.94
2019-05-12T05:29:04.341Z,102472.76
2019-05-12T05:31:33.648Z,102475.80
2019-05-12T05:34:04.832Z,102479.96
2019-05-12T05:36:34.573Z,102485.44
2019-05-12T05:39:05.520Z,102486.64
2019-05-12T05:41:34.630Z,102492.56
2019-05-12T05:44:03.396Z,102492.12
2019-05-12T05:46:33.644Z,102494.44
2019-05-12T05:49:04.217Z,102494.48
2019-05-12T05:51:33.530Z,102500.06
2019-05-12T05:54:03.991Z,102508.16
2019-05-12T05:56:42.305Z,102505.69
2019-05-12T05:59:04.538Z,102514.05
2019-05-12T06:01:34.781Z,102516.98
2019-05-12T06:04:04.567Z,102516.56
2019-05-12T06:06:34.220Z,102519.83
2019-05-12T06:09:05.822Z,102524.55
2019-05-12T06:11:34.665Z,102535.80
2019-05-12T06:14:11.546Z,102536.24
2019-05-12T06:16:34.038Z,102533.34
2019-05-12T06:19:03.488Z,102537.42
2019-05-12T06:21:36.842Z,102527.97
2019-05-12T06:24:03.495Z,102536.06
2019-05-12T06:26:35.362Z,102541.74
2019-05-12T06:29:04.435Z,102541.96
2019-05-12T06:31:33.391Z,102549.58
2019-05-12T06:34:11.378Z,102556.71
2019-05-12T06:36:33.933Z,102553.70
2019-05-12T06:39:04.394Z,102557.34
2019-05-12T06:41:33.607Z,102560.58
2019-05-12T06:44:03.727Z,102562.00
2019-05-12T06:46:34.247Z,102571.53
2019-05-12T06:49:10.159Z,102572.46
2019-05-12T06:51:33.923Z,102571.05
2019-05-12T06:54:07.310Z,102584.16
2019-05-12T06:56:34.227Z,102579.67
2019-05-12T06:59:09.335Z,102581.67
2019-05-12T07:01:33.546Z,102588.28
2019-05-12T07:04:08.261Z,102599.11
2019-05-12T07:06:33.906Z,102611.66
2019-05-12T07:09:09.494Z,102606.73
2019-05-12T07:11:42.530Z,102605.66
2019-05-12T07:14:12.858Z,102611.99
2019-05-12T07:16:35.501Z,102610.42
2019-05-12T07:19:09.642Z,102606.58
2019-05-12T07:21:34.306Z,102612.58
2019-05-12T07:24:09.169Z,102616.48
2019-05-12T07:26:33.925Z,102619.28
2019-05-12T07:29:04.467Z,102630.17
2019-05-12T07:31:33.689Z,102632.60
2019-05-12T07:34:05.304Z,102628.72
2019-05-12T07:36:33.353Z,102637.21
2019-05-12T07:39:04.236Z,102633.64
2019-05-12T07:41:34.171Z,102638.14
2019-05-12T07:44:03.602Z,102642.41
2019-05-12T07:46:34.263Z,102631.36
2019-05-12T07:49:03.878Z,102643.79
2019-05-12T07:51:36.328Z,102639.99
2019-05-12T07:54:04.110Z,102647.78
2019-05-12T07:56:35.694Z,102640.59
2019-05-12T07:59:04.373Z,102637.28
2019-05-12T08:01:38.137Z,102632.72
2019-05-12T08:04:04.533Z,102638.19
2019-05-12T08:06:41.463Z,102634.33
2019-05-12T08:09:05.654Z,102641.27
2019-05-12T08:11:38.710Z,102654.00
2019-05-12T08:14:04.608Z,102656.35
2019-05-12T08:16:36.797Z,102655.09
2019-05-12T08:19:04.156Z,102650.59
2019-05-12T08:21:34.747Z,102655.28
2019-05-12T08:24:03.792Z,102649.78
2019-05-12T08:26:33.466Z,102658.17
2019-05-12T08:29:04.160Z,102661.73
2019-05-12T08:31:38.598Z,102654.15
2019-05-12T08:34:04.236Z,102662.56
2019-05-12T08:36:33.419Z,102664.13
2019-05-12T08:39:05.936Z,102661.09
2019-05-12T08:41:34.109Z,102656.69
2019-05-12T08:44:04.608Z,102663.81
2019-05-12T08:46:34.321Z,102666.14
2019-05-12T08:49:05.344Z,102658.75
2019-05-12T08:51:33.884Z,102679.86
2019-05-12T08:54:07.040Z,102676.88
2019-05-12T08:56:33.231Z,102681.84
2019-05-12T08:59:04.148Z,102679.91
2019-05-12T09:01:34.162Z,102683.73
2019-05-12T09:04:06.675Z,102690.91
2019-05-12T09:06:34.276Z,102686.23
2019-05-12T09:09:04.678Z,102691.56
2019-05-12T09:11:33.716Z,102683.25
2019-05-12T09:14:03.565Z,102695.87
2019-05-12T09:16:33.521Z,102689.65
2019-05-12T09:19:04.650Z,102697.83
2019-05-12T09:21:36.532Z,102696.64
2019-05-12T09:24:04.208Z,102709.84
2019-05-12T09:26:34.464Z,102700.18
2019-05-12T09:29:03.501Z,102697.90
2019-05-12T09:31:33.648Z,102705.02
2019-05-12T09:34:05.967Z,102708.66
2019-05-12T09:36:33.902Z,102708.37
2019-05-12T09:39:06.844Z,102700.45
2019-05-12T09:41:42.660Z,102707.60
2019-05-12T09:44:05.817Z,102700.51
2019-05-12T09:46:37.618Z,102712.27
2019-05-12T09:49:04.516Z,102722.16
2019-05-12T09:51:41.129Z,102714.84
2019-05-12T09:54:05.213Z,102718.12
2019-05-12T09:56:34.244Z,102713.55
2019-05-12T09:59:17.458Z,102721.89
2019-05-12T10:01:35.345Z,102726.88
2019-05-12T10:04:03.681Z,102719.03
2019-05-12T10:06:33.961Z,102743.30
2019-05-12T10:09:03.485Z,102738.70
2019-05-12T10:11:32.014Z,102729.31
2019-05-12T10:14:06.592Z,102736.39
2019-05-12T10:16:33.279Z,102740.17
2019-05-12T10:19:03.769Z,102736.09
2019-05-12T10:21:31.672Z,102740.22
2019-05-12T10:24:02.294Z,102733.79
2019-05-12T10:26:30.378Z,102736.34
2019-05-12T10:29:13.323Z,102742.00
2019-05-12T10:31:29.516Z,102729.93
2019-05-12T10:34:17.288Z,102739.23
2019-05-12T10:36:49.182Z,102735.17
2019-05-12T10:39:17.751Z,102738.66
2019-05-12T10:41:46.348Z,102744.89
2019-05-12T10:44:14.816Z,102743.91
2019-05-12T10:46:43.949Z,102736.55
2019-05-12T10:49:13.916Z,102737.73
2019-05-12T10:51:44.124Z,102751.72
2019-05-12T10:54:15.611Z,102739.09
2019-05-12T10:56:43.812Z,102753.62
2019-05-12T10:59:13.346Z,102755.89
2019-05-12T11:01:47.279Z,102754.12
2019-05-12T11:04:14.348Z,102753.13
2019-05-12T11:06:46.852Z,102769.20
2019-05-12T11:09:13.973Z,102740.62
2019-05-12T11:11:46.813Z,102753.19
2019-05-12T11:14:26.593Z,102761.03
2019-05-12T11:16:47.190Z,102755.95
2019-05-12T11:19:16.845Z,102762.09
2019-05-12T11:21:45.579Z,102784.34
2019-05-12T11:24:14.071Z,102758.00
2019-05-12T11:26:43.260Z,102759.80
2019-05-12T11:29:13.997Z,102763.02
2019-05-12T11:31:44.082Z,102763.38
2019-05-12T11:34:12.777Z,102778.86
2019-05-12T11:36:54.499Z,102668.98
2019-05-12T11:39:23.456Z,102780.97
2019-05-12T11:41:51.603Z,102783.09
2019-05-12T11:44:20.147Z,102785.57
2019-05-12T11:46:48.885Z,102786.13
2019-05-12T11:49:21.852Z,102799.06
2019-05-12T11:51:48.614Z,102789.98
2019-05-12T11:54:17.358Z,102800.36
2019-05-12T11:56:50.314Z,102789.68
2019-05-12T11:59:16.055Z,102799.31
2019-05-12T12:01:49.440Z,102817.08
2019-05-12T12:04:16.082Z,102802.45
2019-05-12T12:06:45.046Z,102809.91
2019-05-12T12:09:15.534Z,102805.41
2019-05-12T12:11:43.983Z,102825.88
2019-05-12T12:14:14.344Z,102824.52
2019-05-12T12:16:50.014Z,102820.74
2019-05-12T12:19:13.139Z,102826.20
2019-05-12T12:21:46.119Z,102823.98
2019-05-12T12:24:13.230Z,102822.80
2019-05-12T12:26:44.238Z,102825.39
2019-05-12T12:29:13.639Z,102828.34
2019-05-12T12:31:50.088Z,102826.71
2019-05-12T12:34:23.707Z,102831.88
2019-05-12T12:36:49.026Z,102843.14
2019-05-12T12:39:17.533Z,102833.92
2019-05-12T12:41:58.287Z,102842.48
2019-05-12T12:44:16.393Z,102847.64
2019-05-12T12:46:44.921Z,102854.40
2019-05-12T12:49:14.059Z,102853.72
2019-05-12T12:51:43.524Z,102845.53
2019-05-12T12:54:12.209Z,102840.09
2019-05-12T12:56:40.691Z,102873.34
2019-05-12T12:59:10.561Z,102856.45
2019-05-12T13:01:39.395Z,102872.87
2019-05-12T13:04:07.877Z,102859.09
2019-05-12T13:06:36.634Z,102878.59
2019-05-12T13:09:17.042Z,102867.03
2019-05-12T13:11:37.603Z,102870.47
2019-05-12T13:14:06.884Z,102861.44
2019-05-12T13:16:35.377Z,102863.00
2019-05-12T13:19:12.160Z,102859.76
2019-05-12T13:21:34.060Z,102860.59
2019-05-12T13:24:03.597Z,102874.25
2019-05-12T13:26:32.329Z,102876.28
2019-05-12T13:29:00.836Z,102871.52
2019-05-12T13:31:29.438Z,102890.63
2019-05-12T13:33:57.943Z,102871.34
2019-05-12T13:36:29.454Z,102877.30
2019-05-12T13:38:56.626Z,102891.83
2019-05-12T13:41:25.144Z,102906.16
2019-05-12T13:43:55.878Z,102882.94
2019-05-12T13:46:24.037Z,102866.58
2019-05-12T13:48:57.577Z,102896.08
2019-05-12T13:51:24.132Z,102886.47
2019-05-12T13:53:53.268Z,102883.38
2019-05-12T13:56:25.755Z,102895.20
2019-05-12T13:58:54.042Z,102901.31
2019-05-12T14:01:24.696Z,102899.73
2019-05-12T14:03:53.529Z,102888.57
2019-05-12T14:06:31.237Z,102891.02
2019-05-12T14:08:53.861Z,102907.61
2019-05-12T14:11:23.860Z,102917.70
2019-05-12T14:13:52.569Z,102922.67
2019-05-12T14:16:23.680Z,102916.60
2019-05-12T14:18:57.094Z,102920.98
2019-05-12T14:21:24.309Z,102921.61
2019-05-12T14:23:52.192Z,102932.89
2019-05-12T14:26:20.958Z,102926.41
2019-05-12T14:28:49.782Z,102922.33
2019-05-12T14:31:29.334Z,102927.41
2019-05-12T14:33:48.878Z,102933.06
2019-05-12T14:36:22.153Z,102928.47
2019-05-12T14:38:47.636Z,102924.96
2019-05-12T14:41:16.169Z,102927.94
2019-05-12T14:43:47.624Z,102953.33
2019-05-12T14:46:14.867Z,102932.09
2019-05-12T14:48:46.358Z,102927.70
2019-05-12T14:51:14.124Z,102929.34
2019-05-12T14:53:46.057Z,102945.45
2019-05-12T14:56:14.049Z,102925.89
2019-05-12T14:58:44.247Z,102944.05
2019-05-12T15:01:14.271Z,102947.75
2019-05-12T15:03:47.628Z,102942.22
2019-05-12T15:06:14.164Z,102948.23
2019-05-12T15:08:43.645Z,102936.94
2019-05-12T15:11:13.247Z,102953.13
2019-05-12T15:13:43.708Z,102951.72
2019-05-12T15:16:12.340Z,102768.93
2019-05-12T15:18:46.721Z,102949.69
2019-05-12T15:21:11.028Z,102949.26
2019-05-12T15:23:39.524Z,102953.91
2019-05-12T15:26:09.628Z,102960.59
2019-05-12T15:28:38.557Z,102968.03
2019-05-12T15:31:07.022Z,102964.98
2019-05-12T15:33:35.537Z,102961.95
2019-05-12T15:36:04.681Z,102970.16
2019-05-12T15:38:34.196Z,102969.20
2019-05-12T15:41:04.233Z,102964.20
2019-05-12T15:43:35.715Z,102967.28
2019-05-12T15:46:03.064Z,102970.24
2019-05-12T15:48:34.015Z,102975.37
2019-05-12T15:51:05.191Z,102963.69
2019-05-12T15:53:33.369Z,102977.62
2019-05-12T15:56:05.670Z,102975.94
2019-05-12T15:58:33.555Z,102973.94
2019-05-12T16:01:04.386Z,102980.07
2019-05-12T16:03:34.381Z,102987.19
2019-05-12T16:06:10.192Z,102985.30
2019-05-12T16:08:32.872Z,102995.78
2019-05-12T16:11:01.605Z,102989.41
2019-05-12T16:13:30.098Z,102998.66
2019-05-12T16:16:03.452Z,102996.09
2019-05-12T16:18:28.834Z,103006.19
2019-05-12T16:20:59.142Z,103006.93
2019-05-12T16:23:29.960Z,103006.54
2019-05-12T16:26:04.823Z,103016.30
2019-05-12T16:28:28.187Z,103011.75
2019-05-12T16:30:58.878Z,103015.89
2019-05-12T16:33:27.260Z,103036.55
2019-05-12T16:35:59.930Z,103009.07
2019-05-12T16:38:26.005Z,103012.81
2019-05-12T16:40:54.499Z,103013.30
2019-05-12T16:43:23.777Z,103013.02
2019-05-12T16:45:53.787Z,103031.98
2019-05-12T16:48:32.111Z,103024.62
2019-05-12T16:50:52.711Z,103037.80
2019-05-12T16:53:25.797Z,103038.29
2019-05-12T16:55:53.255Z,103039.97
2019-05-12T16:58:26.172Z,103041.01
2019-05-12T17:00:53.386Z,103045.09
2019-05-12T17:03:23.737Z,103039.12
2019-05-12T17:05:55.861Z,103043.92
2019-05-12T17:08:24.049Z,103046.98
2019-05-12T17:11:01.147Z,103045.30
2019-05-12T17:13:23.711Z,103042.95
2019-05-12T17:15:55.279Z,103050.22
2019-05-12T17:18:24.733Z,103052.12
2019-05-12T17:20:54.530Z,103069.84
2019-05-12T17:23:24.582Z,103062.34
2019-05-12T17:25:53.304Z,103058.38
2019-05-12T17:28:23.814Z,103066.04
2019-05-12T17:30:54.367Z,103061.94
2019-05-12T17:33:26.650Z,103062.66
2019-05-12T17:35:53.428Z,103071.20
2019-05-12T17:38:25.075Z,103064.70
2019-05-12T17:40:56.442Z,103063.95
2019-05-12T17:43:23.289Z,103076.04
2019-05-12T17:45:56.826Z,103083.73
2019-05-12T17:48:23.459Z,103096.05
2019-05-12T17:50:53.894Z,103088.41
2019-05-12T17:53:24.086Z,103094.77
2019-05-12T17:55:54.038Z,103100.69
2019-05-12T17:58:24.240Z,103092.38
2019-05-12T18:00:52.956Z,103110.02
2019-05-12T18:03:24.655Z,103110.32
2019-05-12T18:05:53.439Z,103106.79
2019-05-12T18:08:24.168Z,103116.10
2019-05-12T18:10:54.311Z,103116.61
2019-05-12T18:13:23.454Z,103117.94
2019-05-12T18:15:52.793Z,103117.97
2019-05-12T18:18:24.174Z,103125.97
2019-05-12T18:20:51.537Z,103135.21
2019-05-12T18:23:28.416Z,103133.65
2019-05-12T18:25:50.735Z,103134.41
2019-05-12T18:28:21.665Z,103148.67
2019-05-12T18:30:49.554Z,103142.24
2019-05-12T18:33:29.585Z,103151.48
2019-05-12T18:35:48.299Z,103148.70
2019-05-12T18:38:21.838Z,103145.43
2019-05-12T18:40:47.049Z,103151.89
2019-05-12T18:43:15.545Z,103148.09
2019-05-12T18:45:48.641Z,103150.39
2019-05-12T18:48:18.124Z,103151.54
2019-05-12T18:50:44.500Z,103160.89
2019-05-12T18:53:14.456Z,103157.42
2019-05-12T18:55:44.272Z,103166.17
2019-05-12T18:58:14.883Z,103165.04
2019-05-12T19:00:43.662Z,103172.59
2019-05-12T19:03:14.048Z,103177.98
2019-05-12T19:05:43.725Z,103167.94
2019-05-12T19:08:14.007Z,103172.23
2019-05-12T19:10:44.410Z,103179.13
2019-05-12T19:13:13.324Z,103174.41
2019-05-12T19:15:43.963Z,103180.00
2019-05-12T19:18:17.381Z,103179.13
2019-05-12T19:20:43.294Z,103182.12
2019-05-12T19:23:13.974Z,103189.92
2019-05-12T19:25:43.686Z,103192.04
2019-05-12T19:28:13.564Z,103195.94
2019-05-12T19:30:43.752Z,103203.06
2019-05-12T19:33:13.575Z,103206.92
2019-05-12T19:35:42.589Z,103211.59
2019-05-12T19:38:13.416Z,103213.36
2019-05-12T19:40:48.943Z,103216.77
2019-05-12T19:43:11.633Z,103225.78
2019-05-12T19:45:40.612Z,103230.31
2019-05-12T19:48:22.050Z,103232.58
2019-05-12T19:50:44.431Z,103227.07
2019-05-12T19:53:10.388Z,103231.74
2019-05-12T19:55:39.089Z,103230.23
2019-05-12T19:58:11.128Z,103238.66
2019-05-12T20:00:37.870Z,103229.35
2019-05-12T20:03:08.552Z,103234.40
2019-05-12T20:05:36.575Z,103237.66
2019-05-12T20:08:05.087Z,103237.09
2019-05-12T20:10:37.679Z,103228.38
2019-05-12T20:13:04.029Z,103234.20
2019-05-12T20:15:36.631Z,103239.02
2019-05-12T20:18:04.244Z,103247.20
2019-05-12T20:20:36.677Z,103246.20
2019-05-12T20:23:03.624Z,103241.55
2019-05-12T20:25:34.036Z,103242.04
2019-05-12T20:28:05.710Z,103245.39
2019-05-12T20:30:33.203Z,103243.98
2019-05-12T20:33:04.152Z,103246.69
2019-05-12T20:35:33.771Z,103251.06
2019-05-12T20:38:04.148Z,103258.09
2019-05-12T20:40:37.537Z,103251.64
2019-05-12T20:43:08.318Z,103254.79
2019-05-12T20:45:40.951Z,103259.60
2019-05-12T20:48:04.178Z,103265.16
2019-05-12T20:50:38.763Z,103265.30
2019-05-12T20:53:03.873Z,103265.91
2019-05-12T20:55:36.616Z,103267.41
2019-05-12T20:58:04.512Z,103275.41
2019-05-12T21:00:33.702Z,103269.97
2019-05-12T21:03:04.355Z,103273.31
2019-05-12T21:05:34.314Z,103277.37
2019-05-12T21:08:10.928Z,103279.45
2019-05-12T21:10:34.140Z,103283.27
2019-05-12T21:13:02.731Z,103290.22
2019-05-12T21:15:37.336Z,103288.63
2019-05-12T21:18:06.946Z,103279.49
2019-05-12T21:20:33.709Z,103283.70
2019-05-12T21:23:02.862Z,103284.42
2019-05-12T21:25:33.770Z,103281.58
2019-05-12T21:28:02.897Z,103287.13
2019-05-12T21:30:33.837Z,103290.12
2019-05-12T21:33:02.057Z,103289.62
2019-05-12T21:35:33.795Z,103289.41
2019-05-12T21:38:00.742Z,103295.05
2019-05-12T21:40:30.549Z,103302.80
2019-05-12T21:42:59.497Z,103302.58
2019-05-12T21:45:30.886Z,103302.83
2019-05-12T21:47:58.269Z,103308.09
2019-05-12T21:50:32.478Z,103312.64
2019-05-12T21:52:59.900Z,103313.64
2019-05-12T21:55:27.532Z,103314.61
2019-05-12T21:57:56.067Z,103318.18
2019-05-12T22:00:34.636Z,103323.83
2019-05-12T22:03:10.332Z,103323.24
2019-05-12T22:05:48.163Z,103321.64
2019-05-12T22:08:06.580Z,103327.64
2019-05-12T22:10:35.282Z,103330.34
2019-05-12T22:13:09.008Z,103335.52
2019-05-12T22:15:33.998Z,103332.21
2019-05-12T22:18:04.646Z,103331.08
2019-05-12T22:20:32.907Z,103337.86
2019-05-12T22:23:09.582Z,103328.36
2019-05-12T22:25:34.319Z,103335.98
2019-05-12T22:28:05.394Z,103342.75
2019-05-12T22:30:34.991Z,103343.11
2019-05-12T22:33:05.942Z,103349.00
2019-05-12T22:35:33.670Z,103349.89
2019-05-12T22:38:09.438Z,103352.83
2019-05-12T22:40:33.108Z,103352.59
2019-05-12T22:43:06.625Z,103353.69
2019-05-12T22:45:37.755Z,103352.84
2019-05-12T22:48:04.083Z,103356.14
2019-05-12T22:50:34.923Z,103360.32
2019-05-12T22:53:04.497Z,103367.94
2019-05-12T22:55:35.815Z,103362.78
2019-05-12T22:58:03.338Z,103363.16
2019-05-12T23:00:34.205Z,103364.14
2019-05-12T23:03:07.233Z,103364.95
2019-05-12T23:05:32.438Z,103364.56
2019-05-12T23:08:06.273Z,103359.67
2019-05-12T23:10:31.181Z,103363.09
2019-05-12T23:13:01.781Z,103364.19
2019-05-12T23:15:29.896Z,103365.92
2019-05-12T23:17:58.399Z,103368.52
2019-05-12T23:20:30.958Z,103371.12
2019-05-12T23:22:57.113Z,103372.81
2019-05-12T23:25:25.591Z,103372.49
2019-05-12T23:28:00.489Z,103365.13
2019-05-12T23:30:26.020Z,103363.13
2019-05-12T23:32:54.495Z,103364.61
2019-05-12T23:35:22.990Z,103368.66
2019-05-12T23:37:53.628Z,103368.02
2019-05-12T23:40:23.603Z,103368.50
2019-05-12T23:42:53.554Z,103365.31
2019-05-12T23:45:24.239Z,103369.23
2019-05-12T23:47:54.030Z,103377.09
2019-05-12T23:50:24.096Z,103364.19
2019-05-12T23:52:54.075Z,103368.41
2019-05-12T23:55:24.193Z,103363.26
2019-05-12T23:57:53.663Z,103361.62
